• Join FlightAware (Why Join?)
  • Login
  • US Flag 
09:17PM EDT


 

Airport Tracker/Info


-or-


 

Live Flight TrackerFlight Track Log ✈ KAP169 ✈ 17-May-2013 ✈ KBOS - KRKD

Flight Track Log - Related Links

Times and Time Zones

All times are in EDT time to prevent confusion due to time zone crossing. See the KAP169 flight status page for this flight to view local times or setup timezone preferences in your user account.

Time Position Orientation Groundspeed Altitude Reporting Facility
EDT Latitude Longitude Course Direction KTS MPH feet Rate Location/Type
09:11AM 42.3833 -71.0167 360° North 106 122 500  Level KA90
09:12AM 42.3833 -71.0167 360° North 104 120 800 540 Climbing KA90
09:13AM 42.4167 -71.0167 360° North 105 121 1,400 540 Climbing KA90
09:14AM 42.4500 -71.0167 360° North 107 123 2,000 600 Climbing KA90
09:15AM 42.4833 -71.0167 360° North 108 124 2,600 480 Climbing KA90
09:16AM 42.5167 -71.0167 360° North 113 130 3,000 360 Climbing KA90
09:17AM 42.5500 -71.0000 20° North 126 145 3,400 420 Climbing KA90
09:18AM 42.5833 -71.0000 360° North 124 143 3,900 480 Climbing KA90
09:19AM 42.6167 -70.9833 20° North 122 140 4,400 480 Climbing KA90
09:20AM 42.6500 -70.9833 360° North 122 140 4,900 420 Climbing KA90
09:21AM 42.6667 -70.9667 36° Northeast 129 148 5,300 420 Climbing KA90
09:22AM 42.7000 -70.9333 36° Northeast 129 148 5,800 480 Climbing KA90
09:23AM 42.7167 -70.9000 56° Northeast 130 150 6,300 480 Climbing KA90
09:24AM 42.7500 -70.8667 36° Northeast 133 153 6,800 300 Climbing KA90
09:25AM 42.7833 -70.8167 48° Northeast 142 163 7,000 120 Climbing KA90
09:26AM 42.8167 -70.7833 36° Northeast 159 183 7,100  Climbing KA90
09:27AM 42.8500 -70.7333 48° Northeast 159 183 7,100  Level KA90
09:28AM 42.8833 -70.7000 36° Northeast 156 180 7,100  Level KA90
09:29AM 42.9167 -70.6500 48° Northeast 157 181 7,100  Level KA90
09:31AM 42.9668 -70.5838 44° Northeast  Level Estimated
09:38AM 43.1687 -70.3155 44° Northeast  Level Estimated
09:39AM 43.1975 -70.2771 44° Northeast  Level Estimated
09:40AM 43.2263 -70.2386 44° Northeast  Level Estimated
09:41AM 43.2551 -70.2000 44° Northeast  Level Estimated
09:42AM 43.2839 -70.1614 44° Northeast  Level Estimated
09:43AM 43.3126 -70.1228 44° Northeast  Level Estimated
09:44AM 43.3413 -70.0842 44° Northeast  Level Estimated
09:45AM 43.3701 -70.0455 44° Northeast  Level Estimated
09:46AM 43.3988 -70.0067 44° Northeast  Level Estimated
09:47AM 43.4275 -69.9680 44° Northeast  Level Estimated
09:48AM 43.4562 -69.9292 44° Northeast  Level Estimated
09:49AM 43.4848 -69.8903 44° Northeast  Level Estimated
09:50AM 43.5135 -69.8514 45° Northeast  Level Estimated
09:51AM 43.5421 -69.8125 45° Northeast  Level Estimated
09:52AM 43.5708 -69.7736 45° Northeast  Level Estimated
09:53AM 43.5994 -69.7346 45° Northeast  Level Estimated
09:54AM 43.6280 -69.6956 45° Northeast  Level Estimated
09:55AM 43.6566 -69.6565 45° Northeast  Level Estimated
09:56AM 43.6851 -69.6174 45° Northeast  Level Estimated
09:57AM 43.7137 -69.5783 45° Northeast  Level Estimated
09:58AM 43.7422 -69.5391 45° Northeast  Level Estimated
09:59AM 43.7708 -69.4999 45° Northeast  Level Estimated
10:00AM 43.7993 -69.4606 45° Northeast  Level Estimated
10:01AM 43.8278 -69.4214 45° Northeast  Level Estimated
10:02AM 43.8563 -69.3820 45° Northeast  Level Estimated
10:03AM 43.8848 -69.3427 45° Northeast  Level Estimated
10:04AM 43.9133 -69.3033 45° Northeast  Level Estimated
10:05AM 43.9417 -69.2639 45° Northeast  Level Estimated
10:06AM 43.9702 -69.2244 45° Northeast  Level Estimated